createdAt,value
2023-12-23T00:00:55.520Z,93805.00
2023-12-23T00:01:55.526Z,93810.00
2023-12-23T00:02:55.452Z,93816.00
2023-12-23T00:03:55.515Z,93804.00
2023-12-23T00:04:55.582Z,93803.00
2023-12-23T00:05:55.627Z,93790.00
2023-12-23T00:06:55.544Z,93798.00
2023-12-23T00:07:55.593Z,93810.00
2023-12-23T00:08:55.582Z,93811.00
2023-12-23T00:09:55.657Z,93806.00
2023-12-23T00:10:55.653Z,93810.00
2023-12-23T00:11:55.705Z,93794.00
2023-12-23T00:12:55.660Z,93806.00
2023-12-23T00:13:55.743Z,93801.00
2023-12-23T00:14:55.732Z,93813.00
2023-12-23T00:15:55.743Z,93808.00
2023-12-23T00:16:55.794Z,93804.00
2023-12-23T00:17:56.557Z,93820.00
2023-12-23T00:18:55.909Z,93825.00
2023-12-23T00:19:55.929Z,93826.00
2023-12-23T00:20:55.939Z,93826.00
2023-12-23T00:22:41.656Z,93827.00
2023-12-23T00:23:41.658Z,93828.00
2023-12-23T00:24:41.643Z,93824.00
2023-12-23T00:25:41.730Z,93823.00
2023-12-23T00:26:41.641Z,93836.00
2023-12-23T00:27:41.648Z,93835.00
2023-12-23T00:28:41.686Z,93835.00
2023-12-23T00:29:41.643Z,93831.00
2023-12-23T00:30:41.657Z,93823.00
2023-12-23T00:31:41.675Z,93834.00
2023-12-23T00:32:41.744Z,93838.00
2023-12-23T00:33:41.681Z,93841.00
2023-12-23T00:34:41.680Z,93846.00
2023-12-23T00:35:41.673Z,93836.00
2023-12-23T00:36:41.683Z,93842.00
2023-12-23T00:37:41.865Z,93840.00
2023-12-23T00:38:41.668Z,93839.00
2023-12-23T00:39:41.660Z,93863.00
2023-12-23T00:40:41.678Z,93848.00
2023-12-23T00:41:41.677Z,93832.00
2023-12-23T00:42:41.670Z,93845.00
2023-12-23T00:43:41.752Z,93846.00
2023-12-23T00:44:41.675Z,93853.00
2023-12-23T00:45:41.675Z,93852.00
2023-12-23T00:46:41.706Z,93848.00
2023-12-23T00:47:41.721Z,93848.00
2023-12-23T00:48:41.734Z,93852.00
2023-12-23T00:49:41.704Z,93847.00
2023-12-23T00:50:41.675Z,93843.00
2023-12-23T00:51:41.683Z,93851.00
2023-12-23T00:52:41.713Z,93853.00
2023-12-23T00:53:41.688Z,93832.00
2023-12-23T00:54:41.689Z,93838.00
2023-12-23T00:55:41.716Z,93824.00
2023-12-23T00:56:41.734Z,93843.00
2023-12-23T00:57:41.770Z,93852.00
2023-12-23T00:58:41.802Z,93857.00
2023-12-23T00:59:41.796Z,93859.00
2023-12-23T01:00:41.864Z,93858.00
2023-12-23T01:01:41.877Z,93858.00
2023-12-23T01:02:41.860Z,93850.00
2023-12-23T01:03:41.978Z,93858.00
2023-12-23T01:04:41.981Z,93853.00
2023-12-23T01:05:41.968Z,93858.00
2023-12-23T01:06:42.082Z,93858.00
2023-12-23T01:07:42.116Z,93859.00
2023-12-23T01:08:42.035Z,93856.00
2023-12-23T01:09:42.062Z,93862.00
2023-12-23T01:10:42.128Z,93866.00
2023-12-23T01:11:42.136Z,93865.00
2023-12-23T01:12:42.168Z,93869.00
2023-12-23T01:13:42.227Z,93882.00
2023-12-23T01:14:42.251Z,93870.00
2023-12-23T01:15:42.259Z,93872.00
2023-12-23T01:16:42.308Z,93874.00
2023-12-23T01:17:42.464Z,93885.00
2023-12-23T01:18:42.397Z,93866.00
2023-12-23T01:19:42.450Z,93894.00
2023-12-23T01:20:42.394Z,93901.00
2023-12-23T01:21:42.444Z,93901.00
2023-12-23T01:22:42.474Z,93895.00
2023-12-23T01:23:42.495Z,93896.00
2023-12-23T01:24:42.500Z,93894.00
2023-12-23T01:25:42.534Z,93895.00
2023-12-23T01:26:42.560Z,93895.00
2023-12-23T01:27:42.587Z,93902.00
2023-12-23T01:28:42.670Z,93894.00
2023-12-23T01:29:42.687Z,93905.00
2023-12-23T01:30:42.725Z,93915.00
2023-12-23T01:31:42.849Z,93915.00
2023-12-23T01:32:42.882Z,93899.00
2023-12-23T01:33:42.965Z,93893.00
2023-12-23T01:34:42.852Z,93911.00
2023-12-23T01:35:42.851Z,93905.00
2023-12-23T01:36:42.891Z,93902.00
2023-12-23T01:37:42.974Z,93909.00
2023-12-23T01:38:43.025Z,93893.00
2023-12-23T01:39:43.001Z,93909.00
2023-12-23T01:40:43.058Z,93910.00
2023-12-23T01:41:43.090Z,93918.00
2023-12-23T01:42:43.127Z,93928.00
2023-12-23T01:43:43.229Z,93914.00
2023-12-23T01:44:43.180Z,93918.00
2023-12-23T01:45:43.228Z,93911.00
2023-12-23T01:46:43.271Z,93923.00
2023-12-23T01:47:43.360Z,93908.00
2023-12-23T01:48:43.372Z,93906.00
2023-12-23T01:49:43.427Z,93935.00
2023-12-23T01:50:43.415Z,93914.00
2023-12-23T01:51:43.458Z,93925.00
2023-12-23T01:52:43.548Z,93932.00
2023-12-23T01:53:43.537Z,93936.00
2023-12-23T01:54:43.560Z,93920.00
2023-12-23T01:55:43.650Z,93938.00
2023-12-23T01:56:43.643Z,93943.00
2023-12-23T01:57:43.677Z,93942.00
2023-12-23T01:58:43.749Z,93948.00
2023-12-23T01:59:43.760Z,93964.00
2023-12-23T02:00:43.861Z,93961.00
2023-12-23T02:01:43.912Z,93968.00
2023-12-23T02:02:44.027Z,93959.00
2023-12-23T02:03:43.904Z,93957.00
2023-12-23T02:04:43.975Z,93959.00
2023-12-23T02:05:43.998Z,93972.00
2023-12-23T02:06:44.044Z,93964.00
2023-12-23T02:07:44.111Z,93958.00
2023-12-23T02:08:44.088Z,93956.00
2023-12-23T02:09:44.127Z,93960.00
2023-12-23T02:10:44.212Z,93962.00
2023-12-23T02:11:44.218Z,93964.00
2023-12-23T02:12:44.264Z,93955.00
2023-12-23T02:13:44.344Z,93964.00
2023-12-23T02:14:44.352Z,93950.00
2023-12-23T02:15:44.496Z,93950.00
2023-12-23T02:16:44.448Z,93965.00
2023-12-23T02:17:44.580Z,93970.00
2023-12-23T02:18:44.543Z,93968.00
2023-12-23T02:19:44.543Z,93973.00
2023-12-23T02:20:44.557Z,93964.00
2023-12-23T02:21:44.592Z,93971.00
2023-12-23T02:22:44.676Z,93989.00
2023-12-23T02:23:44.670Z,93980.00
2023-12-23T02:24:44.714Z,93978.00
2023-12-23T02:25:44.797Z,93983.00
2023-12-23T02:26:44.813Z,93984.00
2023-12-23T02:27:44.836Z,93995.00
2023-12-23T02:28:44.928Z,93991.00
2023-12-23T02:29:44.937Z,93994.00
2023-12-23T02:30:44.991Z,93993.00
2023-12-23T02:31:45.091Z,93992.00
2023-12-23T02:32:45.105Z,93997.00
2023-12-23T02:33:45.123Z,94009.00
2023-12-23T02:34:45.210Z,93997.00
2023-12-23T02:35:45.237Z,94005.00
2023-12-23T02:36:45.275Z,94014.00
2023-12-23T02:37:45.359Z,94018.00
2023-12-23T02:38:45.403Z,94016.00
2023-12-23T02:39:45.433Z,94026.00
2023-12-23T02:40:45.558Z,94032.00
2023-12-23T02:41:45.545Z,94032.00
2023-12-23T02:42:45.630Z,94041.00
2023-12-23T02:43:45.656Z,94033.00
2023-12-23T02:44:45.743Z,94036.00
2023-12-23T02:45:45.778Z,94036.00
2023-12-23T02:46:45.833Z,94033.00
2023-12-23T02:47:46.001Z,94036.00
2023-12-23T02:48:46.092Z,94047.00
2023-12-23T02:49:46.004Z,94039.00
2023-12-23T02:50:46.006Z,94042.00
2023-12-23T02:51:46.068Z,94043.00
2023-12-23T02:52:46.170Z,94036.00
2023-12-23T02:53:46.148Z,94043.00
2023-12-23T02:54:46.232Z,94048.00
2023-12-23T02:55:46.281Z,94048.00
2023-12-23T02:56:46.314Z,94046.00
2023-12-23T02:57:46.356Z,94039.00
2023-12-23T02:58:46.446Z,94035.00
2023-12-23T02:59:46.458Z,94052.00
2023-12-23T03:00:46.554Z,94053.00
2023-12-23T03:01:46.611Z,94033.00
2023-12-23T03:02:46.814Z,94060.00
2023-12-23T03:03:46.734Z,94069.00
2023-12-23T03:04:46.759Z,94060.00
2023-12-23T03:05:46.866Z,94055.00
2023-12-23T03:06:46.862Z,94054.00
2023-12-23T03:07:46.934Z,94059.00
2023-12-23T03:08:46.977Z,94063.00
2023-12-23T03:09:47.039Z,94074.00
2023-12-23T03:10:47.152Z,94078.00
2023-12-23T03:11:47.153Z,94070.00
2023-12-23T03:12:47.377Z,94073.00
2023-12-23T03:13:47.321Z,94080.00
2023-12-23T03:14:47.312Z,94078.00
2023-12-23T03:15:47.380Z,94078.00
2023-12-23T03:16:47.859Z,94078.00
2023-12-23T03:17:47.548Z,94078.00
2023-12-23T03:18:47.559Z,94079.00
2023-12-23T03:19:47.616Z,94090.00
2023-12-23T03:20:47.656Z,94080.00
2023-12-23T03:21:47.710Z,94087.00
2023-12-23T03:22:47.917Z,94077.00
2023-12-23T03:23:47.802Z,94073.00
2023-12-23T03:24:47.857Z,94074.00
2023-12-23T03:25:47.971Z,94077.00
2023-12-23T03:26:47.997Z,94088.00
2023-12-23T03:27:48.034Z,94085.00
2023-12-23T03:28:48.139Z,94083.00
2023-12-23T03:29:48.170Z,94073.00
2023-12-23T03:30:48.273Z,94081.00
2023-12-23T03:31:48.311Z,94084.00
2023-12-23T03:32:48.668Z,94076.00
2023-12-23T03:33:48.508Z,94085.00
2023-12-23T03:34:48.504Z,94087.00
2023-12-23T03:35:48.524Z,94078.00
2023-12-23T03:36:48.600Z,94079.00
2023-12-23T03:37:48.641Z,94087.00
2023-12-23T03:38:48.696Z,94084.00
2023-12-23T03:39:48.747Z,94090.00
2023-12-23T03:40:48.851Z,94097.00
2023-12-23T03:41:48.867Z,94107.00
2023-12-23T03:42:49.213Z,94106.00
2023-12-23T03:43:49.003Z,94108.00
2023-12-23T03:44:49.030Z,94095.00
2023-12-23T03:45:49.081Z,94092.00
2023-12-23T03:46:49.171Z,94095.00
2023-12-23T03:47:49.249Z,94098.00
2023-12-23T03:48:49.267Z,94103.00
2023-12-23T03:49:49.343Z,94096.00
2023-12-23T03:50:49.371Z,94100.00
2023-12-23T03:51:49.438Z,94100.00
2023-12-23T03:52:49.792Z,94108.00
2023-12-23T03:53:49.547Z,94096.00
2023-12-23T03:54:49.615Z,94097.00
2023-12-23T03:55:49.656Z,94104.00
2023-12-23T03:56:51.739Z,94107.00
2023-12-23T03:57:49.751Z,94108.00
2023-12-23T03:58:49.825Z,94107.00
2023-12-23T03:59:49.840Z,94095.00
2023-12-23T04:00:49.927Z,94101.00
2023-12-23T04:01:50.021Z,94113.00
2023-12-23T04:02:50.211Z,94104.00
2023-12-23T04:03:50.082Z,94105.00
2023-12-23T04:04:50.110Z,94100.00
2023-12-23T04:05:50.157Z,94107.00
2023-12-23T04:06:50.226Z,94118.00
2023-12-23T04:07:50.282Z,94113.00
2023-12-23T04:08:50.331Z,94110.00
2023-12-23T04:09:50.387Z,94108.00
2023-12-23T04:10:50.471Z,94112.00
2023-12-23T04:11:50.499Z,94109.00
2023-12-23T04:12:50.826Z,94123.00
2023-12-23T04:13:50.680Z,94116.00
2023-12-23T04:14:50.682Z,94114.00
2023-12-23T04:15:50.742Z,94123.00
2023-12-23T04:16:50.875Z,94121.00
2023-12-23T04:17:50.934Z,94117.00
2023-12-23T04:18:50.948Z,94123.00
2023-12-23T04:19:51.020Z,94125.00
2023-12-23T04:20:51.060Z,94122.00
2023-12-23T04:21:51.102Z,94121.00
2023-12-23T04:22:51.366Z,94123.00
2023-12-23T04:23:51.208Z,94119.00
2023-12-23T04:24:51.247Z,94122.00
2023-12-23T04:25:51.321Z,94122.00
2023-12-23T04:26:51.367Z,94120.00
2023-12-23T04:27:51.413Z,94117.00
2023-12-23T04:28:51.510Z,94123.00
2023-12-23T04:29:51.525Z,94132.00
2023-12-23T04:30:51.625Z,94133.00
2023-12-23T04:31:51.653Z,94132.00
2023-12-23T04:32:51.985Z,94132.00
2023-12-23T04:33:51.759Z,94134.00
2023-12-23T04:34:59.083Z,94122.00
2023-12-23T04:35:59.057Z,94127.00
2023-12-23T04:36:59.055Z,94126.00
2023-12-23T04:37:59.136Z,94126.00
2023-12-23T04:38:59.066Z,94132.00
2023-12-23T04:39:59.060Z,94131.00
2023-12-23T04:40:59.088Z,94132.00
2023-12-23T04:41:59.094Z,94130.00
2023-12-23T04:42:59.063Z,94124.00
2023-12-23T04:43:59.098Z,94129.00
2023-12-23T04:44:59.072Z,94131.00
2023-12-23T04:45:59.086Z,94128.00
2023-12-23T04:46:59.083Z,94132.00
2023-12-23T04:47:59.122Z,94139.00
2023-12-23T04:48:59.125Z,94141.00
2023-12-23T04:49:59.077Z,94140.00
2023-12-23T04:50:59.076Z,94144.00
2023-12-23T04:51:59.101Z,94145.00
2023-12-23T04:52:59.094Z,94145.00
2023-12-23T04:53:59.080Z,94139.00
2023-12-23T04:54:59.089Z,94143.00
2023-12-23T04:55:59.132Z,94144.00
2023-12-23T04:56:59.162Z,94146.00
2023-12-23T04:57:59.212Z,94148.00
2023-12-23T04:58:59.305Z,94150.00
2023-12-23T04:59:59.315Z,94144.00
2023-12-23T05:00:59.435Z,94152.00
2023-12-23T05:01:59.516Z,94145.00
2023-12-23T05:02:59.544Z,94145.00
2023-12-23T05:03:59.550Z,94144.00
2023-12-23T05:04:59.737Z,94138.00
2023-12-23T05:05:59.724Z,94132.00
2023-12-23T05:06:59.709Z,94142.00
2023-12-23T05:07:59.765Z,94133.00
2023-12-23T05:08:59.792Z,94137.00
2023-12-23T05:09:59.853Z,94141.00
2023-12-23T05:10:59.918Z,94143.00
2023-12-23T05:11:59.954Z,94144.00
2023-12-23T05:12:59.982Z,94145.00
2023-12-23T05:14:00.056Z,94144.00
2023-12-23T05:15:00.144Z,94147.00
2023-12-23T05:16:00.231Z,94149.00
2023-12-23T05:17:00.254Z,94150.00
2023-12-23T05:18:00.401Z,94143.00
2023-12-23T05:19:00.379Z,94142.00
2023-12-23T05:20:00.365Z,94139.00
2023-12-23T05:21:00.361Z,94146.00
2023-12-23T05:22:00.417Z,94140.00
2023-12-23T05:23:00.499Z,94144.00
2023-12-23T05:24:00.522Z,94150.00
2023-12-23T05:25:00.578Z,94154.00
2023-12-23T05:26:00.662Z,94147.00
2023-12-23T05:27:02.472Z,94150.00
2023-12-23T05:28:00.739Z,94155.00
2023-12-23T05:29:00.794Z,94152.00
2023-12-23T05:30:00.839Z,94143.00
2023-12-23T05:31:00.920Z,94151.00
2023-12-23T05:32:00.967Z,94148.00
2023-12-23T05:33:01.061Z,94144.00
2023-12-23T05:34:01.185Z,94138.00
2023-12-23T05:35:01.182Z,94142.00
2023-12-23T05:36:01.210Z,94132.00
2023-12-23T05:37:01.236Z,94134.00
2023-12-23T05:38:04.254Z,94135.00
2023-12-23T05:39:01.288Z,94129.00
2023-12-23T05:40:01.277Z,94138.00
2023-12-23T05:41:01.292Z,94132.00
2023-12-23T05:42:01.322Z,94132.00
2023-12-23T05:43:01.280Z,94130.00
2023-12-23T05:44:01.358Z,94128.00
2023-12-23T05:45:01.307Z,94129.00
2023-12-23T05:46:01.279Z,94132.00
2023-12-23T05:47:01.355Z,94129.00
2023-12-23T05:48:01.346Z,94133.00
2023-12-23T05:49:01.870Z,94136.00
2023-12-23T05:50:01.340Z,94128.00
2023-12-23T05:51:01.353Z,94136.00
2023-12-23T05:52:01.345Z,94137.00
2023-12-23T05:53:01.325Z,94135.00
2023-12-23T05:54:01.406Z,94132.00
2023-12-23T05:55:01.281Z,94131.00
2023-12-23T05:56:01.371Z,94127.00
2023-12-23T05:57:01.288Z,94128.00
2023-12-23T05:58:01.291Z,94114.00
2023-12-23T05:59:01.395Z,94115.00
2023-12-23T06:00:01.309Z,94118.00
2023-12-23T06:01:01.326Z,94125.00
2023-12-23T06:02:01.467Z,94121.00
2023-12-23T06:03:01.302Z,94123.00
2023-12-23T06:04:01.326Z,94120.00
2023-12-23T06:05:01.391Z,94118.00
2023-12-23T06:06:01.334Z,94124.00
2023-12-23T06:07:01.343Z,94126.00
2023-12-23T06:08:01.371Z,94133.00
2023-12-23T06:09:01.304Z,94134.00
2023-12-23T06:10:01.332Z,94135.00
2023-12-23T06:11:02.994Z,94133.00
2023-12-23T06:12:01.313Z,94135.00
2023-12-23T06:13:01.311Z,94137.00
2023-12-23T06:14:01.342Z,94130.00
2023-12-23T06:15:01.334Z,94122.00
2023-12-23T06:16:01.317Z,94127.00
2023-12-23T06:17:01.357Z,94130.00
2023-12-23T06:18:01.674Z,94124.00
2023-12-23T06:19:01.392Z,94123.00
2023-12-23T06:20:01.340Z,94128.00
2023-12-23T06:21:01.342Z,94130.00
2023-12-23T06:22:01.321Z,94126.00
2023-12-23T06:23:01.403Z,94126.00
2023-12-23T06:24:01.324Z,94124.00
2023-12-23T06:25:01.329Z,94131.00
2023-12-23T06:26:01.369Z,94133.00
2023-12-23T06:27:01.329Z,94133.00
2023-12-23T06:28:01.326Z,94127.00
2023-12-23T06:29:01.371Z,94126.00
2023-12-23T06:30:01.335Z,94132.00
2023-12-23T06:31:01.392Z,94127.00
2023-12-23T06:32:01.514Z,94121.00
2023-12-23T06:33:01.438Z,94123.00
2023-12-23T06:34:01.473Z,94126.00
2023-12-23T06:35:01.402Z,94127.00
2023-12-23T06:36:01.337Z,94126.00
2023-12-23T06:37:01.343Z,94135.00
2023-12-23T06:38:01.388Z,94128.00
2023-12-23T06:39:01.338Z,94125.00
2023-12-23T06:40:01.351Z,94119.00
2023-12-23T06:41:01.376Z,94130.00
2023-12-23T06:42:01.437Z,94132.00
2023-12-23T06:43:01.486Z,94128.00
2023-12-23T06:44:02.513Z,94127.00
2023-12-23T06:45:01.493Z,94118.00
2023-12-23T06:46:01.508Z,94122.00
2023-12-23T06:47:01.524Z,94122.00
2023-12-23T06:48:01.601Z,94126.00
2023-12-23T06:49:01.609Z,94126.00
2023-12-23T06:50:01.655Z,94124.00
2023-12-23T06:51:01.505Z,94116.00
2023-12-23T06:52:01.521Z,94108.00
2023-12-23T06:53:01.525Z,94114.00
2023-12-23T06:54:01.567Z,94125.00
2023-12-23T06:55:01.612Z,94124.00
2023-12-23T06:56:01.710Z,94125.00
2023-12-23T06:57:01.716Z,94121.00
2023-12-23T06:58:01.778Z,94113.00
2023-12-23T06:59:01.830Z,94125.00
2023-12-23T07:00:01.883Z,94125.00
2023-12-23T07:01:02.013Z,94123.00
2023-12-23T07:02:02.018Z,94119.00
2023-12-23T07:03:02.091Z,94112.00
2023-12-23T07:04:02.140Z,94114.00
2023-12-23T07:05:02.288Z,94108.00
2023-12-23T07:06:02.290Z,94109.00
2023-12-23T07:07:02.285Z,94118.00
2023-12-23T07:08:02.384Z,94121.00
2023-12-23T07:09:02.401Z,94123.00
2023-12-23T07:10:05.494Z,94119.00
2023-12-23T07:11:03.543Z,94120.00
2023-12-23T07:12:02.441Z,94117.00
2023-12-23T07:13:02.479Z,94123.00
2023-12-23T07:14:02.531Z,94127.00
2023-12-23T07:15:02.479Z,94132.00
2023-12-23T07:16:02.447Z,94133.00
2023-12-23T07:17:02.463Z,94128.00
2023-12-23T07:18:02.587Z,94134.00
2023-12-23T07:19:02.500Z,94135.00
2023-12-23T07:20:02.560Z,94133.00
2023-12-23T07:21:02.512Z,94135.00
2023-12-23T07:22:02.576Z,94134.00
2023-12-23T07:23:02.658Z,94134.00
2023-12-23T07:24:02.669Z,94135.00
2023-12-23T07:25:02.729Z,94144.00
2023-12-23T07:26:02.874Z,94148.00
2023-12-23T07:27:02.843Z,94144.00
2023-12-23T07:28:02.902Z,94137.00
2023-12-23T07:29:02.966Z,94138.00
2023-12-23T07:30:02.997Z,94150.00
2023-12-23T07:31:03.121Z,94146.00
2023-12-23T07:32:03.168Z,94150.00
2023-12-23T07:33:03.222Z,94143.00
2023-12-23T07:34:03.354Z,94147.00
2023-12-23T07:35:03.356Z,94142.00
2023-12-23T07:36:03.362Z,94148.00
2023-12-23T07:37:03.414Z,94143.00
2023-12-23T07:38:03.510Z,94140.00
2023-12-23T07:39:03.583Z,94137.00
2023-12-23T07:40:03.617Z,94140.00
2023-12-23T07:41:03.720Z,94139.00
2023-12-23T07:42:03.743Z,94136.00
2023-12-23T07:43:03.798Z,94140.00
2023-12-23T07:44:03.938Z,94146.00
2023-12-23T07:45:03.923Z,94144.00
2023-12-23T07:46:03.979Z,94142.00
2023-12-23T07:47:04.030Z,94141.00
2023-12-23T07:48:04.210Z,94135.00
2023-12-23T07:49:04.184Z,94148.00
2023-12-23T07:50:04.229Z,94147.00
2023-12-23T07:51:04.263Z,94150.00
2023-12-23T07:52:04.320Z,94156.00
2023-12-23T07:53:04.475Z,94153.00
2023-12-23T07:54:04.488Z,94155.00
2023-12-23T07:55:04.490Z,94136.00
2023-12-23T07:56:04.609Z,94135.00
2023-12-23T07:57:04.609Z,94136.00
2023-12-23T07:58:04.676Z,94147.00
2023-12-23T07:59:04.772Z,94144.00
2023-12-23T08:00:04.795Z,94140.00
2023-12-23T08:01:04.872Z,94145.00
2023-12-23T08:02:04.954Z,94140.00
2023-12-23T08:03:04.959Z,94141.00
2023-12-23T08:04:05.151Z,94146.00
2023-12-23T08:05:07.489Z,94147.00
2023-12-23T08:06:05.231Z,94146.00
2023-12-23T08:07:05.071Z,94142.00
2023-12-23T08:08:05.121Z,94142.00
2023-12-23T08:09:05.080Z,94141.00
2023-12-23T08:10:05.079Z,94138.00
2023-12-23T08:11:05.128Z,94143.00
2023-12-23T08:12:05.083Z,94148.00
2023-12-23T08:13:05.074Z,94133.00
2023-12-23T08:14:05.168Z,94131.00
2023-12-23T08:15:05.113Z,94136.00
2023-12-23T08:16:05.093Z,94137.00
2023-12-23T08:17:05.178Z,94143.00
2023-12-23T08:18:05.172Z,94139.00
2023-12-23T08:19:05.169Z,94137.00
2023-12-23T08:20:05.208Z,94133.00
2023-12-23T08:21:05.124Z,94138.00
2023-12-23T08:22:05.099Z,94134.00
2023-12-23T08:23:05.118Z,94138.00
2023-12-23T08:24:05.296Z,94134.00
2023-12-23T08:25:05.110Z,94128.00
2023-12-23T08:26:05.249Z,94124.00
2023-12-23T08:27:05.106Z,94120.00
2023-12-23T08:28:05.110Z,94113.00
2023-12-23T08:29:05.175Z,94114.00
2023-12-23T08:30:05.152Z,94117.00
2023-12-23T08:31:05.111Z,94122.00
2023-12-23T08:32:05.222Z,94127.00
2023-12-23T08:33:05.282Z,94118.00
2023-12-23T08:34:05.408Z,94125.00
2023-12-23T08:35:05.476Z,94124.00
2023-12-23T08:36:05.442Z,94138.00
2023-12-23T08:37:05.520Z,94141.00
2023-12-23T08:38:05.588Z,94130.00
2023-12-23T08:39:05.629Z,94128.00
2023-12-23T08:40:05.702Z,94127.00
2023-12-23T08:41:05.811Z,94134.00
2023-12-23T08:42:05.839Z,94130.00
2023-12-23T08:43:05.896Z,94131.00
2023-12-23T08:44:06.107Z,94129.00
2023-12-23T08:45:06.051Z,94136.00
2023-12-23T08:46:06.107Z,94131.00
2023-12-23T08:47:06.360Z,94132.00
2023-12-23T08:48:06.425Z,94129.00
2023-12-23T08:49:06.428Z,94130.00
2023-12-23T08:50:06.414Z,94126.00
2023-12-23T08:51:06.430Z,94127.00
2023-12-23T08:52:06.502Z,94125.00
2023-12-23T08:53:06.596Z,94127.00
2023-12-23T08:54:06.643Z,94121.00
2023-12-23T08:55:06.702Z,94124.00
2023-12-23T08:56:06.804Z,94130.00
2023-12-23T08:57:06.841Z,94129.00
2023-12-23T08:58:06.890Z,94128.00
2023-12-23T08:59:07.002Z,94133.00
2023-12-23T09:00:07.026Z,94132.00
2023-12-23T09:01:07.090Z,94131.00
2023-12-23T09:02:07.157Z,94128.00
2023-12-23T09:03:07.235Z,94127.00
2023-12-23T09:04:07.227Z,94128.00
2023-12-23T09:05:07.322Z,94120.00
2023-12-23T09:06:07.365Z,94122.00
2023-12-23T09:07:07.393Z,94125.00
2023-12-23T09:08:07.557Z,94128.00
2023-12-23T09:09:07.551Z,94128.00
2023-12-23T09:10:07.571Z,94122.00
2023-12-23T09:11:07.654Z,94125.00
2023-12-23T09:12:07.673Z,94131.00
2023-12-23T09:13:07.724Z,94128.00
2023-12-23T09:14:07.813Z,94133.00
2023-12-23T09:15:07.840Z,94136.00
2023-12-23T09:16:07.889Z,94133.00
2023-12-23T09:17:07.983Z,94131.00
2023-12-23T09:18:08.031Z,94129.00
2023-12-23T09:19:08.138Z,94133.00
2023-12-23T09:20:08.143Z,94133.00
2023-12-23T09:21:08.137Z,94130.00
2023-12-23T09:22:08.153Z,94135.00
2023-12-23T09:23:08.197Z,94135.00
2023-12-23T09:24:08.222Z,94132.00
2023-12-23T09:25:08.269Z,94135.00
2023-12-23T09:26:08.317Z,94136.00
2023-12-23T09:27:08.361Z,94134.00
2023-12-23T09:28:08.400Z,94131.00
2023-12-23T09:29:08.485Z,94133.00
2023-12-23T09:30:08.582Z,94129.00
2023-12-23T09:31:08.607Z,94122.00
2023-12-23T09:32:08.693Z,94132.00
2023-12-23T09:33:08.816Z,94134.00
2023-12-23T09:34:08.858Z,94128.00
2023-12-23T09:35:08.868Z,94127.00
2023-12-23T09:36:08.923Z,94129.00
2023-12-23T09:37:08.970Z,94122.00
2023-12-23T09:38:09.086Z,94115.00
2023-12-23T09:39:09.098Z,94121.00
2023-12-23T09:40:09.152Z,94123.00
2023-12-23T09:41:09.272Z,94135.00
2023-12-23T09:42:09.292Z,94129.00
2023-12-23T09:43:09.374Z,94125.00
2023-12-23T09:44:09.416Z,94126.00
2023-12-23T09:45:09.471Z,94126.00
2023-12-23T09:46:09.529Z,94117.00
2023-12-23T09:47:09.650Z,94117.00
2023-12-23T09:48:09.774Z,94119.00
2023-12-23T09:49:09.815Z,94118.00
2023-12-23T09:50:09.856Z,94112.00
2023-12-23T09:51:09.846Z,94109.00
2023-12-23T09:52:09.912Z,94114.00
2023-12-23T09:53:10.005Z,94115.00
2023-12-23T09:54:10.097Z,94114.00
2023-12-23T09:55:10.102Z,94122.00
2023-12-23T09:56:10.329Z,94117.00
2023-12-23T09:57:10.230Z,94116.00
2023-12-23T09:58:10.276Z,94114.00
2023-12-23T09:59:10.387Z,94119.00
2023-12-23T10:00:10.396Z,94119.00
2023-12-23T10:01:10.510Z,94120.00
2023-12-23T10:02:10.584Z,94115.00
2023-12-23T10:03:10.568Z,94112.00
2023-12-23T10:04:10.594Z,94108.00
2023-12-23T10:05:10.708Z,94106.00
2023-12-23T10:06:10.792Z,94103.00
2023-12-23T10:07:10.751Z,94095.00
2023-12-23T10:08:10.914Z,94098.00
2023-12-23T10:09:10.851Z,94093.00
2023-12-23T10:10:10.902Z,94083.00
2023-12-23T10:11:11.002Z,94077.00
2023-12-23T10:12:11.037Z,94079.00
2023-12-23T10:13:11.095Z,94080.00
2023-12-23T10:14:11.162Z,94073.00
2023-12-23T10:15:11.195Z,94074.00
2023-12-23T10:16:11.261Z,94068.00
2023-12-23T10:17:11.371Z,94059.00
2023-12-23T10:18:11.472Z,94049.00
2023-12-23T10:19:11.488Z,94064.00
2023-12-23T10:20:11.528Z,94067.00
2023-12-23T10:21:11.576Z,94056.00
2023-12-23T10:22:11.655Z,94052.00
2023-12-23T10:23:11.796Z,94046.00
2023-12-23T10:24:11.757Z,94050.00
2023-12-23T10:25:11.805Z,94054.00
2023-12-23T10:26:11.899Z,94061.00
2023-12-23T10:27:11.939Z,94049.00
2023-12-23T10:28:12.020Z,94050.00
2023-12-23T10:29:12.121Z,94049.00
2023-12-23T10:30:12.186Z,94051.00
2023-12-23T10:31:12.218Z,94044.00
2023-12-23T10:32:12.333Z,94048.00
2023-12-23T10:33:12.424Z,94038.00
2023-12-23T10:34:12.698Z,94035.00
2023-12-23T10:35:14.824Z,94030.00
2023-12-23T10:36:12.561Z,94039.00
2023-12-23T10:37:12.641Z,94030.00
2023-12-23T10:38:12.765Z,94032.00
2023-12-23T10:39:12.786Z,94030.00
2023-12-23T10:40:12.845Z,94028.00
2023-12-23T10:41:12.922Z,94029.00
2023-12-23T10:42:12.953Z,94021.00
2023-12-23T10:43:12.988Z,94021.00
2023-12-23T10:44:13.089Z,94022.00
2023-12-23T10:45:13.124Z,94030.00
2023-12-23T10:46:13.248Z,94030.00
2023-12-23T10:47:13.333Z,94019.00
2023-12-23T10:48:13.442Z,94021.00
2023-12-23T10:49:13.592Z,94029.00
2023-12-23T10:50:13.527Z,94026.00
2023-12-23T10:51:13.524Z,94019.00
2023-12-23T10:52:13.596Z,94012.00
2023-12-23T10:53:13.695Z,94014.00
2023-12-23T10:54:13.726Z,94015.00
2023-12-23T10:55:13.788Z,94015.00
2023-12-23T10:56:16.283Z,94008.00
2023-12-23T10:57:13.860Z,94011.00
2023-12-23T10:58:13.865Z,94009.00
2023-12-23T10:59:13.896Z,94006.00
2023-12-23T11:00:13.884Z,94004.00
2023-12-23T11:01:13.958Z,94008.00
2023-12-23T11:02:13.884Z,94015.00
2023-12-23T11:03:13.898Z,94010.00
2023-12-23T11:04:13.875Z,93999.00
2023-12-23T11:05:13.950Z,93997.00
2023-12-23T11:06:13.936Z,94006.00
2023-12-23T11:07:13.871Z,94009.00
2023-12-23T11:08:17.277Z,94011.00
2023-12-23T11:09:13.892Z,94017.00
2023-12-23T11:10:13.892Z,94010.00
2023-12-23T11:11:13.929Z,94002.00
2023-12-23T11:12:13.894Z,94008.00
2023-12-23T11:13:13.897Z,93993.00
2023-12-23T11:14:13.894Z,93997.00
2023-12-23T11:15:13.894Z,94000.00
2023-12-23T11:16:13.872Z,93994.00
2023-12-23T11:17:13.896Z,94002.00
2023-12-23T11:18:13.985Z,94013.00
2023-12-23T11:19:13.925Z,94005.00
2023-12-23T11:20:13.961Z,94004.00
2023-12-23T11:21:13.893Z,93996.00
2023-12-23T11:22:13.881Z,93990.00
2023-12-23T11:23:13.909Z,93982.00
2023-12-23T11:24:13.888Z,93978.00
2023-12-23T11:25:13.912Z,93984.00
2023-12-23T11:26:13.952Z,93989.00
2023-12-23T11:27:13.895Z,93997.00
2023-12-23T11:28:13.918Z,94005.00
2023-12-23T11:29:13.909Z,93990.00
2023-12-23T11:30:13.940Z,93982.00
2023-12-23T11:31:13.909Z,93982.00
2023-12-23T11:32:13.938Z,93972.00
2023-12-23T11:33:14.061Z,93983.00
2023-12-23T11:34:14.148Z,93973.00
2023-12-23T11:35:14.421Z,93966.00
2023-12-23T11:36:14.172Z,93974.00
2023-12-23T11:37:14.248Z,93970.00
2023-12-23T11:38:14.312Z,93973.00
2023-12-23T11:39:14.372Z,93970.00
2023-12-23T11:40:14.445Z,93970.00
2023-12-23T11:41:14.567Z,93970.00
2023-12-23T11:42:14.595Z,93985.00
2023-12-23T11:43:14.626Z,93988.00
2023-12-23T11:44:14.831Z,93975.00
2023-12-23T11:45:14.761Z,93959.00
2023-12-23T11:46:14.832Z,93968.00